Time;durP1;ratioP1;P1;durP2;ratioP2;P2;SDS_P1;SDS_P2;PMS_P1;PMS_P2;Temp;Humidity;BMP_temperature;BMP_pressure;BME280_temperature;BME280_humidity;BME280_pressure;Samples;Min_cycle;Max_cycle;Signal;HPM_P1;HPM_P2
2021/05/05 00:00:30;;;;;;;10.25;3.90;;;384.50;1536.00;;;;;;5100381;28;20495;-85
2021/05/05 00:02:56;;;;;;;10.27;4.03;;;384.30;1561.60;;;;;;5094288;28;20043;-81
2021/05/05 00:05:22;;;;;;;6.97;3.97;;;384.10;1536.00;;;;;;5094434;28;20032;-80
2021/05/05 00:07:47;;;;;;;6.15;3.40;;;384.10;1561.60;;;;;;5107757;28;20085;-85
2021/05/05 00:10:14;;;;;;;7.45;4.18;;;384.00;1561.60;;;;;;5094795;28;20099;-80
2021/05/05 00:12:41;;;;;;;6.97;3.50;;;384.10;1561.60;;;;;;5095431;28;20020;-82
2021/05/05 00:15:27;;;;;;;6.25;3.95;;;384.10;1561.60;;;;;;5100657;28;20036;-80
2021/05/05 00:17:53;;;;;;;10.02;3.97;;;384.20;1536.00;;;;;;5095560;28;20036;-80
2021/05/05 00:20:21;;;;;;;8.38;3.95;;;384.40;1536.00;;;;;;5109642;28;21036;-79
2021/05/05 00:22:48;;;;;;;7.25;3.78;;;384.70;1510.40;;;;;;5109889;28;20067;-79
2021/05/05 00:25:14;;;;;;;20.25;5.43;;;384.70;1484.80;;;;;;5113016;28;20015;-79
2021/05/05 00:27:40;;;;;;;10.63;5.13;;;384.90;1484.80;;;;;;5100492;28;20103;-79
2021/05/05 00:30:08;;;;;;;8.65;4.38;;;409.60;1510.40;;;;;;5113711;28;20023;-81
2021/05/05 00:32:34;;;;;;;9.50;4.13;;;409.60;1536.00;;;;;;5111327;28;20126;-79
2021/05/05 00:35:00;;;;;;;15.38;5.40;;;409.70;1536.00;;;;;;5096688;28;20408;-81
2021/05/05 00:37:26;;;;;;;7.07;3.50;;;409.80;1536.00;;;;;;5106995;28;20443;-82
2021/05/05 00:39:53;;;;;;;9.43;3.65;;;409.80;1510.40;;;;;;5113347;28;20019;-80
2021/05/05 00:42:20;;;;;;;11.85;3.58;;;409.60;1536.00;;;;;;5103402;28;20115;-79
2021/05/05 00:44:46;;;;;;;6.88;3.47;;;384.90;1536.00;;;;;;5113243;28;20047;-79
2021/05/05 00:47:11;;;;;;;5.53;3.40;;;384.80;1484.80;;;;;;5096342;28;20021;-79
2021/05/05 00:49:37;;;;;;;7.43;3.65;;;409.70;1484.80;;;;;;5094938;28;20467;-79
2021/05/05 00:52:03;;;;;;;9.35;4.25;;;409.80;1459.20;;;;;;5092943;28;20127;-84
2021/05/05 00:54:29;;;;;;;7.35;3.20;;;409.80;1484.80;;;;;;5093382;28;20028;-83
2021/05/05 00:56:56;;;;;;;5.80;3.67;;;409.70;1484.80;;;;;;5107065;28;20023;-79
2021/05/05 00:59:23;;;;;;;6.85;3.13;;;409.80;1459.20;;;;;;5108460;28;20032;-84
2021/05/05 01:01:49;;;;;;;8.65;3.97;;;409.80;1459.20;;;;;;5105901;28;20020;-80
2021/05/05 01:04:15;;;;;;;8.50;3.30;;;409.80;1459.20;;;;;;5129418;27;20031;-83
2021/05/05 01:06:41;;;;;;;14.82;3.75;;;410.00;1433.60;;;;;;5113329;28;20127;-82
2021/05/05 01:09:07;;;;;;;5.85;3.25;;;409.80;1459.20;;;;;;5111775;28;20515;-80
2021/05/05 01:11:33;;;;;;;8.68;3.50;;;409.90;1459.20;;;;;;5101253;28;20412;-80
2021/05/05 01:13:58;;;;;;;8.65;3.00;;;410.00;1433.60;;;;;;5098209;28;20035;-80
2021/05/05 01:16:25;;;;;;;6.65;3.35;;;410.10;1433.60;;;;;;5098804;28;20053;-80
2021/05/05 01:18:51;;;;;;;9.02;3.17;;;410.20;1459.20;;;;;;5112666;28;20554;-80
2021/05/05 01:21:18;;;;;;;11.02;3.65;;;410.20;1433.60;;;;;;5113762;28;20554;-80
2021/05/05 01:23:44;;;;;;;6.45;3.53;;;410.20;1459.20;;;;;;5100571;28;20392;-79
2021/05/05 01:26:10;;;;;;;8.18;3.55;;;410.20;1484.80;;;;;;5109457;28;20015;-80
2021/05/05 01:28:42;;;;;;;8.50;3.70;;;410.00;1484.80;;;;;;5112736;28;20026;-80
2021/05/05 01:31:12;;;;;;;7.75;3.60;;;410.00;1510.40;;;;;;5097673;28;20028;-80
2021/05/05 01:33:38;;;;;;;8.50;3.42;;;409.80;1536.00;;;;;;5092147;28;20073;-80
2021/05/05 01:36:06;;;;;;;6.43;3.35;;;409.70;1536.00;;;;;;5098372;28;20553;-80
2021/05/05 01:38:32;;;;;;;6.00;3.35;;;409.80;1536.00;;;;;;5105587;28;20032;-80
2021/05/05 01:40:58;;;;;;;8.07;3.78;;;384.90;1587.20;;;;;;5105217;28;20024;-80
2021/05/05 01:43:24;;;;;;;7.82;3.63;;;409.70;1561.60;;;;;;5098190;27;20035;-80
2021/05/05 01:45:49;;;;;;;9.23;3.50;;;409.70;1561.60;;;;;;5098540;28;20031;-80
2021/05/05 01:48:17;;;;;;;6.93;3.47;;;409.60;1561.60;;;;;;5121968;27;20035;-80
2021/05/05 01:50:43;;;;;;;9.00;3.63;;;409.70;1561.60;;;;;;5111446;28;20425;-80
2021/05/05 01:53:09;;;;;;;7.07;3.75;;;409.70;1587.20;;;;;;5112452;28;20177;-79
2021/05/05 01:55:34;;;;;;;5.85;3.55;;;409.70;1612.80;;;;;;5108760;28;20498;-80
2021/05/05 01:58:00;;;;;;;7.90;3.55;;;409.70;1612.80;;;;;;5101191;28;20027;-79
2021/05/05 02:00:28;;;;;;;7.85;4.82;;;409.70;1587.20;;;;;;5116549;27;20114;-79
2021/05/05 02:02:54;;;;;;;9.40;3.95;;;409.80;1536.00;;;;;;5113334;28;20035;-79
2021/05/05 02:05:20;;;;;;;11.80;4.25;;;409.80;1484.80;;;;;;5111721;28;20070;-79
2021/05/05 02:07:46;;;;;;;7.70;3.38;;;409.80;1484.80;;;;;;5111835;28;20035;-80
2021/05/05 02:10:17;;;;;;;8.23;4.57;;;409.90;1484.80;;;;;;5100164;28;20074;-80
2021/05/05 02:12:43;;;;;;;8.95;3.92;;;410.00;1484.80;;;;;;5106800;28;20016;-79
2021/05/05 02:15:11;;;;;;;7.28;3.80;;;410.00;1459.20;;;;;;5100471;28;20032;-80
2021/05/05 02:17:37;;;;;;;6.90;3.20;;;410.10;1433.60;;;;;;5107541;28;20032;-79
2021/05/05 02:20:11;;;;;;;9.60;4.38;;;410.10;1433.60;;;;;;5111473;28;20023;-81
2021/05/05 02:22:38;;;;;;;10.82;3.65;;;410.10;1408.00;;;;;;5110469;28;20092;-79
2021/05/05 02:25:04;;;;;;;10.45;4.20;;;410.10;1408.00;;;;;;5099160;28;20111;-79
2021/05/05 02:27:31;;;;;;;6.25;3.45;;;410.20;1382.40;;;;;;5111248;28;20106;-80
2021/05/05 02:29:58;;;;;;;9.13;4.20;;;410.20;1408.00;;;;;;5109949;28;20019;-80
2021/05/05 02:32:25;;;;;;;5.93;3.92;;;410.10;1382.40;;;;;;5111293;28;20015;-79
2021/05/05 02:34:53;;;;;;;7.78;3.65;;;410.20;1382.40;;;;;;5111003;28;20421;-80
2021/05/05 02:37:19;;;;;;;6.38;3.90;;;410.30;1382.40;;;;;;5111334;28;20019;-79
2021/05/05 02:39:45;;;;;;;16.10;4.70;;;410.20;1382.40;;;;;;5111002;28;20519;-80
2021/05/05 02:42:17;;;;;;;13.50;4.18;;;410.30;1356.80;;;;;;5111003;28;20028;-79
2021/05/05 02:44:45;;;;;;;10.25;4.25;;;410.30;1382.40;;;;;;5096229;28;20024;-79
2021/05/05 02:47:11;;;;;;;7.32;3.92;;;410.40;1356.80;;;;;;5096087;28;20151;-79
2021/05/05 02:49:38;;;;;;;9.32;4.13;;;410.40;1356.80;;;;;;5112422;28;20024;-79
2021/05/05 02:52:04;;;;;;;7.03;3.83;;;410.20;1382.40;;;;;;5095497;28;20044;-80
2021/05/05 02:54:31;;;;;;;9.07;3.75;;;410.40;1356.80;;;;;;5091017;28;20032;-79
2021/05/05 02:56:57;;;;;;;6.90;3.60;;;410.40;1356.80;;;;;;5105967;28;20421;-79
2021/05/05 02:59:25;;;;;;;6.28;3.30;;;410.40;1356.80;;;;;;5092022;28;20464;-79
2021/05/05 03:01:56;;;;;;;10.32;4.18;;;410.40;1356.80;;;;;;5103574;28;20043;-77
2021/05/05 03:04:22;;;;;;;8.82;4.30;;;410.40;1382.40;;;;;;5110810;28;20067;-77
2021/05/05 03:06:48;;;;;;;8.88;3.80;;;410.40;1382.40;;;;;;5110445;28;20027;-77
2021/05/05 03:09:19;;;;;;;7.07;4.03;;;410.40;1382.40;;;;;;5097965;28;20031;-77
2021/05/05 03:11:46;;;;;;;11.27;4.95;;;410.50;1382.40;;;;;;5110884;28;20051;-78
2021/05/05 03:14:12;;;;;;;9.07;4.55;;;410.30;1382.40;;;;;;5107781;28;20036;-77
2021/05/05 03:16:38;;;;;;;6.65;3.97;;;410.40;1382.40;;;;;;5090645;28;20425;-77
2021/05/05 03:19:04;;;;;;;9.18;4.03;;;410.20;1408.00;;;;;;5100850;28;20042;-77
2021/05/05 03:21:30;;;;;;;8.27;4.25;;;410.20;1459.20;;;;;;5112204;28;20114;-78
2021/05/05 03:23:56;;;;;;;7.80;4.20;;;410.10;1484.80;;;;;;5108456;28;20035;-77
2021/05/05 03:26:21;;;;;;;8.90;4.25;;;410.00;1484.80;;;;;;5114501;28;20038;-77
2021/05/05 03:28:47;;;;;;;9.25;4.43;;;410.00;1484.80;;;;;;5105108;28;20418;-77
2021/05/05 03:31:13;;;;;;;9.10;4.43;;;410.00;1484.80;;;;;;5103384;28;20028;-77
2021/05/05 03:33:38;;;;;;;8.27;4.50;;;409.90;1484.80;;;;;;5105632;28;20055;-77
2021/05/05 03:36:04;;;;;;;8.77;4.28;;;409.90;1510.40;;;;;;5101490;27;20035;-77
2021/05/05 03:38:30;;;;;;;10.60;5.13;;;409.90;1510.40;;;;;;5108128;28;20070;-77
2021/05/05 03:40:56;;;;;;;7.47;4.38;;;409.90;1510.40;;;;;;5102762;28;20043;-78
2021/05/05 03:43:22;;;;;;;10.82;4.30;;;409.70;1536.00;;;;;;5105718;28;20032;-77
2021/05/05 03:45:48;;;;;;;6.97;4.55;;;409.70;1536.00;;;;;;5100549;28;20069;-77
2021/05/05 03:48:15;;;;;;;6.97;4.18;;;409.60;1561.60;;;;;;5102984;28;20407;-77
2021/05/05 03:50:41;;;;;;;8.57;4.53;;;384.90;1536.00;;;;;;5114159;28;20026;-77
2021/05/05 03:53:06;;;;;;;10.07;5.32;;;384.90;1536.00;;;;;;5114601;28;20040;-77
2021/05/05 03:55:32;;;;;;;10.00;4.88;;;384.90;1536.00;;;;;;5115718;28;20020;-78
2021/05/05 03:57:58;;;;;;;7.38;4.40;;;384.90;1536.00;;;;;;5106728;28;20024;-78
2021/05/05 04:00:25;;;;;;;8.30;4.95;;;384.90;1561.60;;;;;;5107608;28;20495;-79
2021/05/05 04:02:50;;;;;;;12.00;5.07;;;384.80;1536.00;;;;;;5113656;28;20093;-78
2021/05/05 04:05:16;;;;;;;11.70;4.50;;;384.70;1561.60;;;;;;5102566;28;20430;-77
2021/05/05 04:07:42;;;;;;;8.38;5.10;;;384.50;1587.20;;;;;;5094759;28;20024;-78
2021/05/05 04:10:09;;;;;;;13.15;6.05;;;384.40;1587.20;;;;;;5095005;28;20065;-77
2021/05/05 04:12:36;;;;;;;12.25;5.00;;;384.30;1612.80;;;;;;5094285;28;20019;-78
2021/05/05 04:15:03;;;;;;;9.38;6.07;;;384.40;1612.80;;;;;;5103885;28;20428;-78
2021/05/05 04:17:29;;;;;;;13.55;5.90;;;384.40;1638.40;;;;;;5099982;28;20495;-76
2021/05/05 04:19:56;;;;;;;14.57;5.15;;;384.40;1664.00;;;;;;5109459;28;20032;-77
2021/05/05 04:22:23;;;;;;;13.30;5.35;;;384.30;1664.00;;;;;;5094915;28;20027;-76
2021/05/05 04:24:49;;;;;;;16.13;6.72;;;384.30;1664.00;;;;;;5095805;28;20031;-76
2021/05/05 04:27:16;;;;;;;9.93;6.57;;;384.30;1664.00;;;;;;5094513;28;20059;-76
2021/05/05 04:29:42;;;;;;;11.98;5.85;;;384.20;1689.60;;;;;;5111549;28;20027;-76
2021/05/05 04:32:09;;;;;;;14.48;5.75;;;384.20;1689.60;;;;;;5103499;28;20024;-75
2021/05/05 04:34:35;;;;;;;10.75;5.88;;;384.30;1664.00;;;;;;5106990;28;20451;-76
2021/05/05 04:37:03;;;;;;;13.82;6.45;;;384.40;1664.00;;;;;;5094590;28;20058;-74
2021/05/05 04:39:29;;;;;;;11.13;6.63;;;384.50;1664.00;;;;;;5110338;28;20030;-75
2021/05/05 04:41:55;;;;;;;13.65;6.43;;;384.60;1689.60;;;;;;5106796;28;20020;-77
2021/05/05 04:44:20;;;;;;;16.20;7.18;;;384.60;1689.60;;;;;;5100368;28;20069;-78
2021/05/05 04:46:46;;;;;;;18.00;6.55;;;384.70;1689.60;;;;;;5102735;28;20129;-77
2021/05/05 04:49:12;;;;;;;18.85;7.43;;;384.70;1715.20;;;;;;5094271;28;20020;-75
2021/05/05 04:51:39;;;;;;;17.95;6.05;;;384.80;1715.20;;;;;;5100966;28;20495;-76
2021/05/05 04:54:07;;;;;;;11.75;5.35;;;384.90;1740.80;;;;;;5100735;28;20077;-76
2021/05/05 04:56:33;;;;;;;18.15;7.30;;;409.60;1740.80;;;;;;5112888;28;20032;-76
2021/05/05 04:58:59;;;;;;;16.88;7.88;;;384.90;1740.80;;;;;;5109150;28;20548;-76
2021/05/05 05:01:24;;;;;;;23.65;8.25;;;384.90;1740.80;;;;;;5097044;28;20036;-76
2021/05/05 05:03:50;;;;;;;26.25;9.02;;;384.90;1766.40;;;;;;5095594;28;20040;-76
2021/05/05 05:06:16;;;;;;;35.15;9.23;;;384.90;1766.40;;;;;;5106404;28;20047;-76
2021/05/05 05:08:41;;;;;;;24.13;10.60;;;409.60;1792.00;;;;;;5094312;28;20028;-77
2021/05/05 05:11:07;;;;;;;26.88;8.23;;;409.80;1792.00;;;;;;5094256;28;20044;-77
2021/05/05 05:13:33;;;;;;;14.07;7.90;;;409.70;1715.20;;;;;;5093995;28;20107;-77
2021/05/05 05:15:59;;;;;;;17.20;10.25;;;409.70;1689.60;;;;;;5097043;28;20033;-77
2021/05/05 05:18:24;;;;;;;21.08;9.60;;;409.70;1664.00;;;;;;5112626;28;20031;-77
2021/05/05 05:20:51;;;;;;;24.90;8.52;;;409.70;1689.60;;;;;;5104056;28;20072;-77
2021/05/05 05:23:17;;;;;;;18.10;7.10;;;409.80;1664.00;;;;;;5108861;28;20115;-76
2021/05/05 05:25:43;;;;;;;18.08;7.72;;;409.90;1638.40;;;;;;5099549;28;20106;-75
2021/05/05 05:28:09;;;;;;;13.98;7.43;;;410.00;1587.20;;;;;;5107264;28;20032;-75
2021/05/05 05:30:35;;;;;;;13.65;8.52;;;410.10;1612.80;;;;;;5101793;28;20068;-75
2021/05/05 05:33:00;;;;;;;12.50;5.95;;;410.20;1587.20;;;;;;5095931;28;20020;-75
2021/05/05 05:35:26;;;;;;;9.55;5.00;;;410.30;1536.00;;;;;;5098510;28;20024;-76
2021/05/05 05:37:52;;;;;;;23.95;6.22;;;410.40;1536.00;;;;;;5107493;28;20031;-77
2021/05/05 05:40:18;;;;;;;8.75;5.38;;;435.20;1510.40;;;;;;5111022;28;20016;-76
2021/05/05 05:42:45;;;;;;;12.95;6.25;;;435.20;1484.80;;;;;;5102397;28;20392;-76
2021/05/05 05:45:12;;;;;;;12.30;7.07;;;435.30;1459.20;;;;;;5095208;28;20124;-75
2021/05/05 05:47:39;;;;;;;9.43;5.03;;;435.40;1484.80;;;;;;5099700;28;20031;-77
2021/05/05 05:50:07;;;;;;;10.23;4.05;;;435.50;1484.80;;;;;;5113009;28;20020;-76
2021/05/05 05:52:33;;;;;;;9.23;4.80;;;435.60;1561.60;;;;;;5112062;28;20054;-76
2021/05/05 05:54:59;;;;;;;6.15;3.03;;;435.70;1561.60;;;;;;5101153;28;20028;-77
2021/05/05 05:57:24;;;;;;;13.50;3.42;;;435.80;1408.00;;;;;;5111525;28;20016;-76
2021/05/05 05:59:50;;;;;;;7.65;3.08;;;436.00;1356.80;;;;;;5102770;28;20062;-76
2021/05/05 06:02:16;;;;;;;6.32;2.78;;;436.10;1280.00;;;;;;5098217;28;20110;-76
2021/05/05 06:04:42;;;;;;;7.75;2.80;;;460.80;1305.60;;;;;;5100933;28;20102;-76
2021/05/05 06:07:08;;;;;;;7.28;3.03;;;460.90;1356.80;;;;;;5106162;28;20153;-82
2021/05/05 06:09:33;;;;;;;8.43;2.97;;;461.00;1356.80;;;;;;5100468;28;20031;-77
2021/05/05 06:11:59;;;;;;;5.45;2.60;;;461.10;1331.20;;;;;;5109411;28;20019;-77
2021/05/05 06:14:25;;;;;;;9.13;3.58;;;461.20;1305.60;;;;;;5106403;28;20035;-77
2021/05/05 06:16:51;;;;;;;5.20;2.60;;;461.20;1305.60;;;;;;5110662;28;20107;-85
2021/05/05 06:19:16;;;;;;;13.23;3.03;;;461.30;1280.00;;;;;;5098729;28;20011;-78
2021/05/05 06:21:43;;;;;;;6.70;2.35;;;461.40;1254.40;;;;;;5120067;27;20050;-75
2021/05/05 06:24:08;;;;;;;6.00;2.38;;;461.40;1280.00;;;;;;5099829;28;20035;-76
2021/05/05 06:26:34;;;;;;;6.05;2.45;;;461.50;1228.80;;;;;;5095393;28;20026;-75
2021/05/05 06:29:00;;;;;;;7.93;2.97;;;461.50;1228.80;;;;;;5110449;28;20502;-75
2021/05/05 06:31:26;;;;;;;5.40;3.00;;;461.60;1254.40;;;;;;5096573;28;20020;-76
2021/05/05 06:33:52;;;;;;;5.47;2.50;;;461.70;1203.20;;;;;;5095329;28;20020;-76
2021/05/05 06:36:17;;;;;;;5.63;2.78;;;486.40;1203.20;;;;;;5100256;28;20142;-76
2021/05/05 06:38:43;;;;;;;7.13;3.10;;;486.50;1203.20;;;;;;5108631;28;20027;-75
2021/05/05 06:41:09;;;;;;;9.25;2.45;;;486.70;1228.80;;;;;;5092516;28;20024;-76
2021/05/05 06:43:35;;;;;;;7.72;2.25;;;486.70;1177.60;;;;;;5101308;28;20028;-75
2021/05/05 06:46:02;;;;;;;7.65;3.03;;;486.80;1177.60;;;;;;5099550;28;20018;-75
2021/05/05 06:48:28;;;;;;;11.45;3.05;;;486.90;1152.00;;;;;;5116030;27;20168;-75
2021/05/05 06:50:54;;;;;;;7.03;2.60;;;487.00;1177.60;;;;;;5100223;28;20474;-73
2021/05/05 06:53:20;;;;;;;7.72;2.28;;;487.10;1126.40;;;;;;5101639;28;20130;-75
2021/05/05 06:55:45;;;;;;;5.05;2.42;;;487.20;1049.60;;;;;;5093472;28;20047;-75
2021/05/05 06:58:11;;;;;;;4.80;2.20;;;487.20;1024.00;;;;;;5099924;28;20357;-75
2021/05/05 07:00:37;;;;;;;5.25;2.67;;;487.30;1049.60;;;;;;5091241;28;20025;-75
2021/05/05 07:03:03;;;;;;;6.50;2.22;;;512.00;1024.00;;;;;;5091827;28;20036;-75
2021/05/05 07:05:29;;;;;;;5.03;2.50;;;512.10;1049.60;;;;;;5101509;28;20023;-76
2021/05/05 07:07:55;;;;;;;3.92;2.05;;;512.20;1049.60;;;;;;5104717;28;20217;-75
2021/05/05 07:10:21;;;;;;;10.95;2.90;;;512.40;1049.60;;;;;;5097432;28;20028;-76
2021/05/05 07:12:46;;;;;;;8.00;2.22;;;512.40;1126.40;;;;;;5098068;28;20020;-76
2021/05/05 07:15:13;;;;;;;6.63;2.80;;;512.50;1075.20;;;;;;5098512;28;20065;-76
2021/05/05 07:17:39;;;;;;;7.20;2.67;;;512.60;1075.20;;;;;;5097568;28;20491;-75
2021/05/05 07:20:06;;;;;;;5.68;2.40;;;512.70;998.40;;;;;;5097542;28;20021;-75
2021/05/05 07:22:31;;;;;;;6.10;2.30;;;512.80;1049.60;;;;;;5100792;28;20388;-76
2021/05/05 07:24:57;;;;;;;6.78;2.53;;;512.90;1024.00;;;;;;5096576;28;20024;-76
2021/05/05 07:27:23;;;;;;;5.93;2.40;;;537.60;1049.60;;;;;;5095729;28;20421;-75
2021/05/05 07:29:49;;;;;;;5.70;2.45;;;537.60;998.40;;;;;;5092203;28;20032;-76
2021/05/05 07:32:15;;;;;;;5.72;2.80;;;537.70;998.40;;;;;;5097190;28;20024;-76
2021/05/05 07:34:42;;;;;;;8.65;3.00;;;537.70;1075.20;;;;;;5104867;28;20069;-76
2021/05/05 07:37:14;;;;;;;5.30;2.42;;;537.80;1075.20;;;;;;5095403;28;20016;-76
2021/05/05 07:40:24;;;;;;;4.22;2.00;;;538.00;1024.00;;;;;;5101874;28;20020;-76
2021/05/05 07:45:30;;;;;;;5.63;2.95;;;538.10;972.80;;;;;;5095383;28;20187;-76
2021/05/05 07:50:45;;;;;;;8.38;2.78;;;538.30;972.80;;;;;;5048695;28;20048;-76
2021/05/05 07:53:10;;;;;;;5.25;2.33;;;538.40;1024.00;;;;;;5048658;28;20536;-77
2021/05/05 07:55:36;;;;;;;7.35;2.47;;;538.40;947.20;;;;;;5032026;28;20116;-76
2021/05/05 07:58:02;;;;;;;7.03;3.08;;;538.50;998.40;;;;;;5048801;28;20465;-77
2021/05/05 08:00:30;;;;;;;6.03;2.45;;;538.50;921.60;;;;;;5048820;28;20029;-76
2021/05/05 08:02:55;;;;;;;6.68;2.67;;;538.50;921.60;;;;;;5048701;28;20037;-77
2021/05/05 08:05:21;;;;;;;6.40;3.35;;;538.50;1024.00;;;;;;5047837;28;20029;-76
2021/05/05 08:07:50;;;;;;;10.02;2.38;;;563.30;1075.20;;;;;;5048361;28;20195;-76
2021/05/05 08:10:16;;;;;;;6.05;2.35;;;563.20;998.40;;;;;;5046207;28;20037;-76
2021/05/05 08:12:41;;;;;;;7.05;2.28;;;563.40;972.80;;;;;;5047485;28;20043;-76
2021/05/05 08:15:08;;;;;;;7.60;2.55;;;563.40;998.40;;;;;;5033747;28;20589;-76
2021/05/05 08:17:34;;;;;;;7.53;3.05;;;563.60;921.60;;;;;;5042661;28;20025;-76
2021/05/05 08:20:00;;;;;;;5.68;2.75;;;563.60;896.00;;;;;;5041054;28;20021;-76
2021/05/05 08:22:26;;;;;;;5.20;2.45;;;563.60;896.00;;;;;;5050929;28;20060;-75
2021/05/05 08:24:51;;;;;;;5.28;2.42;;;563.50;896.00;;;;;;5040771;28;20032;-75
2021/05/05 08:27:17;;;;;;;6.57;2.42;;;563.50;921.60;;;;;;5064681;28;20092;-77
2021/05/05 08:29:43;;;;;;;7.18;2.13;;;563.50;896.00;;;;;;5100280;28;20055;-78
2021/05/05 08:32:09;;;;;;;7.10;2.88;;;563.40;896.00;;;;;;5102567;28;20452;-79
2021/05/05 08:34:35;;;;;;;10.05;3.03;;;563.60;896.00;;;;;;5105535;28;20085;-77
2021/05/05 08:37:00;;;;;;;8.00;2.83;;;563.60;921.60;;;;;;5106060;28;20030;-77
2021/05/05 08:39:26;;;;;;;6.38;2.95;;;563.60;896.00;;;;;;5103811;28;20027;-76
2021/05/05 08:41:53;;;;;;;6.55;3.08;;;563.60;947.20;;;;;;5094001;28;20023;-78
2021/05/05 08:44:19;;;;;;;11.75;3.40;;;563.60;947.20;;;;;;5093228;28;20050;-77
2021/05/05 08:46:46;;;;;;;5.85;3.10;;;563.60;972.80;;;;;;5093236;28;20107;-78
2021/05/05 08:49:13;;;;;;;10.55;3.17;;;563.60;972.80;;;;;;5104224;28;20041;-78
2021/05/05 08:51:39;;;;;;;9.43;2.78;;;563.60;947.20;;;;;;5104286;28;20048;-78
2021/05/05 08:54:07;;;;;;;7.13;2.97;;;563.70;972.80;;;;;;5104346;28;20369;-77
2021/05/05 08:56:37;;;;;;;6.32;2.50;;;563.60;921.60;;;;;;5099660;28;20091;-78
2021/05/05 08:59:05;;;;;;;5.85;2.10;;;563.90;896.00;;;;;;5096581;28;20073;-78
2021/05/05 09:01:32;;;;;;;4.97;2.80;;;564.00;921.60;;;;;;5094494;28;20059;-76
2021/05/05 09:03:59;;;;;;;6.20;2.55;;;564.00;896.00;;;;;;5098891;28;20028;-79
2021/05/05 09:06:52;;;;;;;10.57;2.00;;;564.10;870.40;;;;;;5103735;28;20024;-77
2021/05/05 09:09:38;;;;;;;5.00;2.03;;;588.90;844.80;;;;;;5103158;28;20035;-80
2021/05/05 09:12:22;;;;;;;4.95;2.33;;;588.90;793.60;;;;;;5095306;28;20047;-77
2021/05/05 09:14:53;;;;;;;6.63;2.17;;;588.90;742.40;;;;;;5095802;28;20552;-81
2021/05/05 09:17:21;;;;;;;3.20;2.10;;;589.00;742.40;;;;;;5096806;28;20022;-78
2021/05/05 09:19:47;;;;;;;6.93;2.95;;;589.10;768.00;;;;;;5099157;28;20382;-76
2021/05/05 09:22:30;;;;;;;5.30;1.90;;;589.10;768.00;;;;;;5102300;28;20032;-77
2021/05/05 09:24:57;;;;;;;5.18;2.58;;;589.20;768.00;;;;;;5104957;28;20126;-78
2021/05/05 09:27:23;;;;;;;4.38;2.17;;;589.20;768.00;;;;;;5093519;28;20021;-78
2021/05/05 09:29:51;;;;;;;5.15;2.17;;;589.40;819.20;;;;;;5092818;28;20028;-78
2021/05/05 09:32:19;;;;;;;6.45;2.97;;;589.50;768.00;;;;;;5101731;28;20023;-78
2021/05/05 09:35:02;;;;;;;10.63;2.85;;;589.50;768.00;;;;;;5095554;27;20059;-78
2021/05/05 09:37:28;;;;;;;4.70;2.20;;;589.40;793.60;;;;;;5108002;28;20030;-79
2021/05/05 09:40:05;;;;;;;6.43;2.63;;;589.70;742.40;;;;;;5097877;28;20099;-80
2021/05/05 09:42:33;;;;;;;6.97;3.50;;;614.50;742.40;;;;;;5103906;28;20031;-79
2021/05/05 09:45:07;;;;;;;13.45;11.75;;;614.50;793.60;;;;;;5095632;28;20089;-79
2021/05/05 09:47:45;;;;;;;6.28;3.47;;;614.70;742.40;;;;;;5093541;28;20016;-80
2021/05/05 09:50:29;;;;;;;6.22;2.53;;;614.80;793.60;;;;;;5101816;28;20027;-80
2021/05/05 09:53:16;;;;;;;4.65;2.30;;;614.90;716.80;;;;;;5092255;28;20044;-78
2021/05/05 09:56:01;;;;;;;;;;;615.00;716.80;;;;;;5106520;28;20024;-79
2021/05/05 09:58:36;;;;;;;8.57;3.00;;;615.00;716.80;;;;;;5081673;28;19904;-80
2021/05/05 10:01:08;;;;;;;6.93;2.38;;;615.00;742.40;;;;;;5093423;28;20095;-79
2021/05/05 10:03:41;;;;;;;4.78;2.78;;;615.20;742.40;;;;;;5105269;28;20115;-80
2021/05/05 10:06:31;;;;;;;5.80;2.40;;;640.20;716.80;;;;;;5105596;28;20034;-79
2021/05/05 10:08:59;;;;;;;7.45;2.40;;;640.10;716.80;;;;;;5104377;28;20059;-80
2021/05/05 10:11:36;;;;;;;4.75;2.25;;;640.10;742.40;;;;;;5094389;28;20023;-80
2021/05/05 10:14:04;;;;;;;14.10;2.88;;;640.40;716.80;;;;;;5106010;28;20039;-80
2021/05/05 10:16:32;;;;;;;6.38;2.72;;;640.50;742.40;;;;;;5110894;28;20059;-79
2021/05/05 10:19:00;;;;;;;8.32;2.63;;;640.40;742.40;;;;;;5100359;28;20093;-79
2021/05/05 10:21:27;;;;;;;5.43;2.50;;;640.30;742.40;;;;;;5098312;28;20028;-79
2021/05/05 10:23:57;;;;;;;7.18;2.67;;;640.50;716.80;;;;;;5103513;28;20028;-79
2021/05/05 10:26:24;;;;;;;4.20;2.22;;;640.40;742.40;;;;;;5099343;28;20020;-78
2021/05/05 10:28:50;;;;;;;5.18;2.30;;;640.40;716.80;;;;;;5107623;28;20383;-79
2021/05/05 10:31:19;;;;;;;5.50;2.65;;;640.50;716.80;;;;;;5094812;28;20032;-78
2021/05/05 10:33:47;;;;;;;6.72;2.90;;;640.80;716.80;;;;;;5100271;28;20028;-80
2021/05/05 10:36:35;;;;;;;4.75;2.55;;;640.50;742.40;;;;;;5102364;28;20052;-81
2021/05/05 10:39:25;;;;;;;4.65;2.38;;;640.40;742.40;;;;;;5110748;28;20059;-78
2021/05/05 10:42:00;;;;;;;7.03;2.60;;;640.90;716.80;;;;;;5092200;28;20077;-79
2021/05/05 10:44:36;;;;;;;10.65;2.22;;;640.60;716.80;;;;;;5091951;28;20486;-78
2021/05/05 10:47:16;;;;;;;5.05;2.10;;;640.70;716.80;;;;;;5099925;28;20031;-79
2021/05/05 10:50:05;;;;;;;4.65;2.30;;;640.80;691.20;;;;;;5099388;28;20015;-79
2021/05/05 10:52:54;;;;;;;4.68;2.20;;;640.90;742.40;;;;;;5097060;28;20074;-79
2021/05/05 10:55:41;;;;;;;5.32;2.22;;;640.60;742.40;;;;;;5105066;28;20489;-79
2021/05/05 10:58:13;;;;;;;9.85;2.90;;;640.70;716.80;;;;;;5101132;28;20023;-81
2021/05/05 11:00:57;;;;;;;5.43;2.10;;;640.90;742.40;;;;;;5096232;28;20043;-79
2021/05/05 11:03:49;;;;;;;3.45;2.20;;;665.60;716.80;;;;;;5100532;28;20044;-79
2021/05/05 11:06:33;;;;;;;5.75;2.25;;;665.90;665.60;;;;;;5095538;28;20032;-81
2021/05/05 11:09:11;;;;;;;4.20;2.03;;;666.00;716.80;;;;;;5103985;28;20024;-82
2021/05/05 11:11:54;;;;;;;6.78;2.13;;;640.90;716.80;;;;;;5107320;28;20359;-79
2021/05/05 11:14:30;;;;;;;9.43;2.53;;;665.70;716.80;;;;;;5095962;28;20040;-81
2021/05/05 11:17:02;;;;;;;4.53;2.22;;;665.60;742.40;;;;;;5106156;28;20111;-79
2021/05/05 11:19:37;;;;;;;4.88;2.00;;;665.70;742.40;;;;;;5092481;28;20028;-79
2021/05/05 11:22:19;;;;;;;4.27;2.17;;;666.00;691.20;;;;;;5098575;28;20028;-80
2021/05/05 11:24:49;;;;;;;6.07;2.33;;;666.20;716.80;;;;;;5094545;28;20295;-80
2021/05/05 11:27:16;;;;;;;3.90;1.83;;;665.70;716.80;;;;;;5097296;28;20487;-78
2021/05/05 11:29:46;;;;;;;7.10;2.92;;;640.40;716.80;;;;;;5099347;28;20024;-80
2021/05/05 11:32:18;;;;;;;4.80;2.53;;;640.90;716.80;;;;;;5103476;28;20020;-79
2021/05/05 11:34:46;;;;;;;9.43;2.78;;;665.60;716.80;;;;;;5099288;28;20345;-78
2021/05/05 11:37:15;;;;;;;5.10;2.42;;;665.60;691.20;;;;;;5105145;28;20099;-76
2021/05/05 11:39:46;;;;;;;3.70;2.25;;;665.90;716.80;;;;;;5096788;28;20391;-77
2021/05/05 11:42:23;;;;;;;10.60;3.22;;;666.30;665.60;;;;;;5101535;28;20043;-78
2021/05/05 11:44:48;;;;;;;6.05;2.47;;;666.20;691.20;;;;;;5102549;28;20032;-78
2021/05/05 11:47:28;;;;;;;13.02;2.72;;;666.30;691.20;;;;;;5099182;28;20486;-76
2021/05/05 11:49:59;;;;;;;5.72;2.40;;;666.20;716.80;;;;;;5103143;28;20031;-78
2021/05/05 11:52:38;;;;;;;7.88;2.35;;;666.30;691.20;;;;;;5103666;28;20050;-77
2021/05/05 11:55:07;;;;;;;5.93;2.47;;;666.40;691.20;;;;;;5101717;28;20475;-78
2021/05/05 11:57:37;;;;;;;4.40;2.00;;;666.10;691.20;;;;;;5100896;28;20016;-78
2021/05/05 12:00:29;;;;;;;4.95;1.92;;;666.10;691.20;;;;;;5097332;28;20502;-78
2021/05/05 12:02:56;;;;;;;5.03;2.10;;;666.30;691.20;;;;;;5094769;28;20032;-79
2021/05/05 12:05:30;;;;;;;4.28;1.63;;;691.20;691.20;;;;;;5098778;28;20111;-76
2021/05/05 12:08:13;;;;;;;3.65;2.10;;;691.20;691.20;;;;;;5099314;28;20035;-77
2021/05/05 12:10:43;;;;;;;7.22;2.65;;;691.30;665.60;;;;;;5108877;28;20114;-78
2021/05/05 12:13:17;;;;;;;6.00;2.30;;;691.20;691.20;;;;;;5099007;28;20040;-77
2021/05/05 12:16:04;;;;;;;7.38;2.47;;;666.30;691.20;;;;;;5101127;28;20024;-77
2021/05/05 12:18:34;;;;;;;11.00;2.22;;;666.10;691.20;;;;;;5098766;28;20467;-77
2021/05/05 12:21:11;;;;;;;7.20;2.53;;;666.00;716.80;;;;;;5102321;28;20043;-77
2021/05/05 12:23:45;;;;;;;9.65;3.17;;;665.60;768.00;;;;;;5113328;28;20372;-78
2021/05/05 12:26:25;;;;;;;8.27;3.47;;;665.90;742.40;;;;;;5097476;28;20016;-77
2021/05/05 12:28:53;;;;;;;8.18;2.65;;;666.20;768.00;;;;;;5100592;28;20028;-76
2021/05/05 12:31:24;;;;;;;5.22;2.10;;;666.20;716.80;;;;;;5100197;28;20073;-77